地図

経路データ

SID SEASON NUMBER BASIN SUBBASIN NAME ISO_TIME NATURE LAT LON WMO_WIND WMO_PRES WMO_AGENCY TRACK_TYPE DIST2LAND LANDFALL IFLAG USA_AGENCY USA_ATCF_ID USA_LAT USA_LON USA_RECORD USA_STATUS USA_WIND USA_PRES USA_SSHS USA_R34_NE USA_R34_SE USA_R34_SW USA_R34_NW USA_R50_NE USA_R50_SE USA_R50_SW USA_R50_NW USA_R64_NE USA_R64_SE USA_R64_SW USA_R64_NW USA_POCI USA_ROCI USA_RMW USA_EYE TOKYO_LAT TOKYO_LON TOKYO_GRADE TOKYO_WIND TOKYO_PRES TOKYO_R50_DIR TOKYO_R50_LONG TOKYO_R50_SHORT TOKYO_R30_DIR TOKYO_R30_LONG TOKYO_R30_SHORT TOKYO_LAND CMA_LAT CMA_LON CMA_CAT CMA_WIND CMA_PRES HKO_LAT HKO_LON HKO_CAT HKO_WIND HKO_PRES NEWDELHI_LAT NEWDELHI_LON NEWDELHI_GRADE NEWDELHI_WIND NEWDELHI_PRES NEWDELHI_CI NEWDELHI_DP NEWDELHI_POCI REUNION_LAT REUNION_LON REUNION_TYPE REUNION_WIND REUNION_PRES REUNION_TNUM REUNION_CI REUNION_RMW REUNION_R34_NE REUNION_R34_SE REUNION_R34_SW REUNION_R34_NW REUNION_R50_NE REUNION_R50_SE REUNION_R50_SW REUNION_R50_NW REUNION_R64_NE REUNION_R64_SE REUNION_R64_SW REUNION_R64_NW BOM_LAT BOM_LON BOM_TYPE BOM_WIND BOM_PRES BOM_TNUM BOM_CI BOM_RMW BOM_R34_NE BOM_R34_SE BOM_R34_SW BOM_R34_NW BOM_R50_NE BOM_R50_SE BOM_R50_SW BOM_R50_NW BOM_R64_NE BOM_R64_SE BOM_R64_SW BOM_R64_NW BOM_ROCI BOM_POCI BOM_EYE BOM_POS_METHOD BOM_PRES_METHOD NADI_LAT NADI_LON NADI_CAT NADI_WIND NADI_PRES WELLINGTON_LAT WELLINGTON_LON WELLINGTON_WIND WELLINGTON_PRES DS824_LAT DS824_LON DS824_STAGE DS824_WIND DS824_PRES TD9636_LAT TD9636_LON TD9636_STAGE TD9636_WIND TD9636_PRES TD9635_LAT TD9635_LON TD9635_WIND TD9635_PRES TD9635_ROCI NEUMANN_LAT NEUMANN_LON NEUMANN_CLASS NEUMANN_WIND NEUMANN_PRES MLC_LAT MLC_LON MLC_CLASS MLC_WIND MLC_PRES USA_GUST BOM_GUST BOM_GUST_PER REUNION_GUST REUNION_GUST_PER USA_SEAHGT USA_SEARAD_NE USA_SEARAD_SE USA_SEARAD_SW USA_SEARAD_NW STORM_SPEED STORM_DIR
1957220N27273 1957 41 NA GM BERTHA 1957-08-08 00:00:00 TS 27.0000 -87.4000 25 hurdat_atl main 278 262 O_____________ hurdat_atl AL031957 27.0000 -87.4000 TD 25 -1 5 271
1957220N27273 1957 41 NA GM BERTHA 1957-08-08 03:00:00 TS 27.0051 -87.6999 main 262 247 P_____________ AL031957 27.0051 -87.6999 TD 27 -1 5 270
1957220N27273 1957 41 NA GM BERTHA 1957-08-08 06:00:00 TS 27.0000 -88.0000 30 hurdat_atl main 247 236 O_____________ hurdat_atl AL031957 27.0000 -88.0000 TD 30 -1 5 268
1957220N27273 1957 41 NA GM BERTHA 1957-08-08 09:00:00 TS 26.9849 -88.3001 main 236 228 P_____________ AL031957 26.9849 -88.3001 TD 32 -1 5 270
1957220N27273 1957 41 NA GM BERTHA 1957-08-08 12:00:00 TS 27.0000 -88.6000 35 hurdat_atl main 228 213 O_____________ hurdat_atl AL031957 27.0000 -88.6000 TS 35 0 5 280
1957220N27273 1957 41 NA GM BERTHA 1957-08-08 15:00:00 TS 27.0774 -88.8925 main 213 200 P_____________ AL031957 27.0774 -88.8925 TS 40 0 6 291
1957220N27273 1957 41 NA GM BERTHA 1957-08-08 18:00:00 TS 27.2000 -89.2000 45 hurdat_atl main 201 190 O_____________ hurdat_atl AL031957 27.2000 -89.2000 TS 45 0 6 295
1957220N27273 1957 41 NA GM BERTHA 1957-08-08 21:00:00 TS 27.3425 -89.5425 main 193 179 P_____________ AL031957 27.3425 -89.5425 TS 50 0 7 296
1957220N27273 1957 41 NA GM BERTHA 1957-08-09 00:00:00 TS 27.5000 -89.9000 55 1000 hurdat_atl main 179 167 O_____________ hurdat_atl AL031957 27.5000 -89.9000 TS 55 1000 0 7 295
1957220N27273 1957 41 NA GM BERTHA 1957-08-09 03:00:00 TS 27.6349 -90.2502 main 167 145 P_____________ AL031957 27.6349 -90.2502 TS 52 0 7 296
1957220N27273 1957 41 NA GM BERTHA 1957-08-09 06:00:00 TS 27.8000 -90.6000 50 hurdat_atl main 145 122 O_____________ hurdat_atl AL031957 27.8000 -90.6000 TS 50 0 7 302
1957220N27273 1957 41 NA GM BERTHA 1957-08-09 09:00:00 TS 28.0198 -90.9353 main 122 97 P_____________ AL031957 28.0198 -90.9353 TS 47 0 8 309
1957220N27273 1957 41 NA GM BERTHA 1957-08-09 12:00:00 TS 28.3000 -91.3000 45 hurdat_atl main 97 82 O_____________ hurdat_atl AL031957 28.3000 -91.3000 TS 45 0 9 312
1957220N27273 1957 41 NA GM BERTHA 1957-08-09 15:00:00 TS 28.6500 -91.7348 main 80 56 P_____________ AL031957 28.6500 -91.7348 TS 47 0 11 312
1957220N27273 1957 41 NA GM BERTHA 1957-08-09 18:00:00 TS 29.0000 -92.2000 50 1005 hurdat_atl main 56 33 O_____________ hurdat_atl AL031957 29.0000 -92.2000 TS 50 1005 0 10 308
1957220N27273 1957 41 NA GM BERTHA 1957-08-09 21:00:00 TS 29.2874 -92.6576 main 34 24 P_____________ AL031957 29.2874 -92.6576 TS 52 1003 0 9 302
1957220N27273 1957 41 NA GM BERTHA 1957-08-10 00:00:00 TS 29.5000 -93.1000 55 hurdat_atl main 29 22 I_____________ hurdat_atl AL031957 29.5000 -93.1000 TS 55 1001 0 8 293
1957220N27273 1957 41 NA GM BERTHA 1957-08-10 03:00:00 TS 29.6074 -93.5155 main 22 0 P_____________ AL031957 29.6074 -93.5155 TS 55 999 0 7 286
1957220N27273 1957 41 NA GM BERTHA 1957-08-10 06:00:00 TS 29.7000 -93.9000 55 998 hurdat_atl main 0 0 O_____________ hurdat_atl AL031957 29.7000 -93.9000 L TS 55 998 0 7 291
1957220N27273 1957 41 NA NA BERTHA 1957-08-10 09:00:00 TS 29.8625 -94.2726 main 0 0 P_____________ AL031957 29.8625 -94.2726 TS 47 0 7 303
1957220N27273 1957 41 NA NA BERTHA 1957-08-10 12:00:00 TS 30.1000 -94.6000 40 hurdat_atl main 0 0 O_____________ hurdat_atl AL031957 30.1000 -94.6000 TS 40 0 8 316
1957220N27273 1957 41 NA NA BERTHA 1957-08-10 15:00:00 TS 30.4125 -94.8948 main 0 0 P_____________ AL031957 30.4125 -94.8948 TS 35 0 8 328
1957220N27273 1957 41 NA NA BERTHA 1957-08-10 18:00:00 TS 30.8000 -95.1000 30 hurdat_atl main 0 0 O_____________ hurdat_atl AL031957 30.8000 -95.1000 TD 30 -1 9 343
1957220N27273 1957 41 NA NA BERTHA 1957-08-10 21:00:00 TS 31.2274 -95.1878 main 0 0 P_____________ AL031957 31.2274 -95.1878 TD 27 -1 9 355
1957220N27273 1957 41 NA NA BERTHA 1957-08-11 00:00:00 TS 31.7000 -95.2000 25 hurdat_atl main 0 0 O_____________ hurdat_atl AL031957 31.7000 -95.2000 TD 25 -1 10 0
1957220N27273 1957 41 NA NA BERTHA 1957-08-11 03:00:00 TS 32.1950 -95.1999 main 0 0 P_____________ AL031957 32.1950 -95.1999 TD 25 -1 10 1
1957220N27273 1957 41 NA NA BERTHA 1957-08-11 06:00:00 TS 32.7000 -95.2000 25 hurdat_atl main 0 O_____________ hurdat_atl AL031957 32.7000 -95.2000 TD 25 -1 10 359

IBTrACS Databaseについて

本データベースは、米国NOAAが公開する1842年以降の世界の熱帯低気圧のベストトラックデータアーカイブInternational Best Track Archive for Climate Stewardship (IBTrACS)を、ウェブで閲覧しやすい形式に変換したものです。

最終更新日:2021-12-06